createdAt,value
2018-04-13T00:00:33.080Z,69.70
2018-04-13T00:01:08.395Z,69.40
2018-04-13T00:01:43.761Z,70.10
2018-04-13T00:02:19.009Z,69.30
2018-04-13T00:02:54.423Z,71.00
2018-04-13T00:03:29.702Z,69.00
2018-04-13T00:04:05.034Z,68.50
2018-04-13T00:04:42.799Z,70.50
2018-04-13T00:05:18.028Z,71.20
2018-04-13T00:05:53.427Z,69.60
2018-04-13T00:06:28.645Z,70.10
2018-04-13T00:07:03.997Z,69.90
2018-04-13T00:07:39.183Z,69.80
2018-04-13T00:08:14.591Z,70.80
2018-04-13T00:08:52.005Z,70.40
2018-04-13T00:09:27.321Z,72.30
2018-04-13T00:10:02.400Z,73.40
2018-04-13T00:10:37.721Z,72.40
2018-04-13T00:11:13.122Z,68.60
2018-04-13T00:11:48.555Z,69.90
2018-04-13T00:12:24.003Z,71.60
2018-04-13T00:12:59.469Z,70.20
2018-04-13T00:13:34.687Z,68.40
2018-04-13T00:14:10.200Z,69.40
2018-04-13T00:14:45.605Z,69.40
2018-04-13T00:15:20.818Z,70.00
2018-04-13T00:15:56.418Z,70.50
2018-04-13T00:16:31.850Z,70.10
2018-04-13T00:17:07.279Z,67.40
2018-04-13T00:17:42.480Z,67.20
2018-04-13T00:18:17.993Z,66.10
2018-04-13T00:18:53.192Z,67.70
2018-04-13T00:19:28.706Z,69.00
2018-04-13T00:20:03.961Z,68.60
2018-04-13T00:20:40.963Z,70.50
2018-04-13T00:21:16.397Z,75.20
2018-04-13T00:21:51.829Z,74.20
2018-04-13T00:22:27.384Z,70.40
2018-04-13T00:23:02.794Z,73.10
2018-04-13T00:23:37.927Z,74.20
2018-04-13T00:24:13.450Z,72.80
2018-04-13T00:24:50.044Z,76.30
2018-04-13T00:25:25.183Z,78.20
2018-04-13T00:26:00.371Z,75.30
2018-04-13T00:26:35.573Z,72.60
2018-04-13T00:27:10.905Z,75.70
2018-04-13T00:27:46.218Z,75.00
2018-04-13T00:28:21.434Z,75.10
2018-04-13T00:28:56.626Z,74.20
2018-04-13T00:29:32.160Z,75.70
2018-04-13T00:30:07.774Z,79.30
2018-04-13T00:30:44.373Z,80.50
2018-04-13T00:31:19.612Z,79.00
2018-04-13T00:31:55.039Z,79.50
2018-04-13T00:32:30.599Z,77.40
2018-04-13T00:33:05.973Z,75.70
2018-04-13T00:33:41.344Z,73.60
2018-04-13T00:34:17.055Z,73.60
2018-04-13T00:34:52.779Z,73.70
2018-04-13T00:35:28.232Z,73.60
2018-04-13T00:36:03.418Z,68.20
2018-04-13T00:36:38.859Z,63.90
2018-04-13T00:37:14.206Z,64.20
2018-04-13T00:37:50.939Z,64.90
2018-04-13T00:38:26.292Z,66.60
2018-04-13T00:39:01.576Z,70.20
2018-04-13T00:39:36.996Z,70.50
2018-04-13T00:40:12.229Z,68.10
2018-04-13T00:40:47.909Z,72.10
2018-04-13T00:41:23.575Z,71.10
2018-04-13T00:41:58.995Z,70.80
2018-04-13T00:42:34.660Z,70.40
2018-04-13T00:43:09.782Z,66.20
2018-04-13T00:43:45.361Z,62.60
2018-04-13T00:44:20.577Z,61.30
2018-04-13T00:44:55.864Z,64.90
2018-04-13T00:45:31.092Z,68.90
2018-04-13T00:46:06.638Z,69.20
2018-04-13T00:46:41.930Z,68.80
2018-04-13T00:47:17.416Z,71.70
2018-04-13T00:47:52.836Z,70.00
2018-04-13T00:48:28.083Z,70.30
2018-04-13T00:49:03.307Z,69.10
2018-04-13T00:49:38.823Z,67.40
2018-04-13T00:50:14.464Z,64.90
2018-04-13T00:50:49.861Z,66.80
2018-04-13T00:51:25.285Z,72.20
2018-04-13T00:52:00.726Z,70.40
2018-04-13T00:52:36.157Z,67.40
2018-04-13T00:53:11.229Z,70.00
2018-04-13T00:53:46.440Z,69.00
2018-04-13T00:54:21.936Z,70.00
2018-04-13T00:54:57.570Z,73.60
2018-04-13T00:55:32.819Z,70.60
2018-04-13T00:56:08.106Z,69.80
2018-04-13T00:56:43.644Z,71.30
2018-04-13T00:57:19.145Z,71.20
2018-04-13T00:57:54.588Z,69.70
2018-04-13T00:58:30.100Z,71.20
2018-04-13T00:59:05.710Z,70.10
2018-04-13T00:59:40.936Z,70.90
2018-04-13T01:00:16.138Z,72.50
2018-04-13T01:00:51.954Z,71.20
2018-04-13T01:01:27.376Z,72.30
2018-04-13T01:02:02.785Z,73.60
2018-04-13T01:02:38.647Z,75.50
2018-04-13T01:03:14.147Z,75.60
2018-04-13T01:03:49.601Z,72.20
2018-04-13T01:04:25.022Z,72.40
2018-04-13T01:05:00.202Z,72.10
2018-04-13T01:05:35.541Z,72.20
2018-04-13T01:06:10.649Z,70.70
2018-04-13T01:06:46.106Z,69.00
2018-04-13T01:07:21.625Z,67.50
2018-04-13T01:07:56.942Z,68.20
2018-04-13T01:08:32.148Z,68.80
2018-04-13T01:09:07.427Z,68.40
2018-04-13T01:09:42.659Z,70.60
2018-04-13T01:10:18.144Z,72.80
2018-04-13T01:10:53.462Z,72.20
2018-04-13T01:11:28.898Z,70.10
2018-04-13T01:12:04.528Z,68.90
2018-04-13T01:12:41.249Z,65.90
2018-04-13T01:13:16.621Z,67.20
2018-04-13T01:13:52.055Z,71.70
2018-04-13T01:14:27.665Z,66.90
2018-04-13T01:15:03.071Z,66.40
2018-04-13T01:15:38.485Z,70.20
2018-04-13T01:16:13.818Z,69.40
2018-04-13T01:16:49.380Z,72.70
2018-04-13T01:17:24.821Z,74.40
2018-04-13T01:18:00.097Z,73.50
2018-04-13T01:18:35.635Z,72.10
2018-04-13T01:19:10.752Z,69.60
2018-04-13T01:19:46.374Z,72.00
2018-04-13T01:20:21.765Z,68.80
2018-04-13T01:20:57.282Z,69.10
2018-04-13T01:21:32.492Z,68.20
2018-04-13T01:22:08.001Z,65.90
2018-04-13T01:22:43.436Z,67.90
2018-04-13T01:23:18.933Z,68.70
2018-04-13T01:23:54.344Z,70.70
2018-04-13T01:24:30.243Z,69.30
2018-04-13T01:25:05.968Z,66.30
2018-04-13T01:25:41.195Z,65.80
2018-04-13T01:26:16.605Z,66.60
2018-04-13T01:26:51.935Z,69.20
2018-04-13T01:27:27.305Z,67.50
2018-04-13T01:28:02.386Z,66.80
2018-04-13T01:28:37.720Z,68.40
2018-04-13T01:29:13.206Z,69.00
2018-04-13T01:29:48.620Z,68.10
2018-04-13T01:30:24.053Z,66.60
2018-04-13T01:30:59.757Z,68.30
2018-04-13T01:31:35.097Z,69.30
2018-04-13T01:32:10.712Z,71.60
2018-04-13T01:32:46.220Z,69.90
2018-04-13T01:33:21.544Z,68.20
2018-04-13T01:33:57.188Z,69.40
2018-04-13T01:34:32.696Z,68.40
2018-04-13T01:35:08.110Z,67.70
2018-04-13T01:35:43.251Z,67.10
2018-04-13T01:36:18.562Z,68.90
2018-04-13T01:36:53.874Z,68.60
2018-04-13T01:37:29.137Z,66.90
2018-04-13T01:38:04.444Z,67.30
2018-04-13T01:38:39.902Z,68.10
2018-04-13T01:39:15.502Z,68.10
2018-04-13T01:39:50.611Z,67.10
2018-04-13T01:40:25.941Z,67.10
2018-04-13T01:41:01.131Z,67.70
2018-04-13T01:41:36.356Z,68.50
2018-04-13T01:42:11.665Z,68.50
2018-04-13T01:42:46.918Z,67.10
2018-04-13T01:43:22.321Z,68.30
2018-04-13T01:43:57.575Z,67.10
2018-04-13T01:44:32.989Z,64.00
2018-04-13T01:45:08.118Z,63.10
2018-04-13T01:45:43.435Z,62.50
2018-04-13T01:46:18.452Z,61.00
2018-04-13T01:46:53.920Z,62.30
2018-04-13T01:47:29.198Z,64.70
2018-04-13T01:48:04.547Z,64.30
2018-04-13T01:48:40.260Z,63.70
2018-04-13T01:49:15.544Z,63.10
2018-04-13T01:49:51.173Z,64.10
2018-04-13T01:50:26.367Z,66.90
2018-04-13T01:51:01.884Z,69.30
2018-04-13T01:51:36.992Z,65.20
2018-04-13T01:52:12.842Z,64.80
2018-04-13T01:52:48.154Z,66.20
2018-04-13T01:53:23.457Z,64.70
2018-04-13T01:53:58.876Z,61.50
2018-04-13T01:54:34.088Z,62.10
2018-04-13T01:55:09.988Z,63.80
2018-04-13T01:55:45.409Z,64.90
2018-04-13T01:56:21.048Z,62.50
2018-04-13T01:56:56.370Z,63.00
2018-04-13T01:57:31.683Z,63.70
2018-04-13T01:58:07.624Z,64.40
2018-04-13T01:58:43.153Z,63.70
2018-04-13T01:59:18.638Z,64.70
2018-04-13T01:59:54.058Z,64.80
2018-04-13T02:00:29.650Z,66.20
2018-04-13T02:01:04.983Z,70.00
2018-04-13T02:01:41.092Z,68.60
2018-04-13T02:02:16.715Z,67.00
2018-04-13T02:02:52.130Z,64.20
2018-04-13T02:03:27.311Z,63.40
2018-04-13T02:04:02.747Z,64.30
2018-04-13T02:04:38.001Z,64.20
2018-04-13T02:05:13.133Z,67.70
2018-04-13T02:05:48.251Z,69.10
2018-04-13T02:06:23.693Z,69.10
2018-04-13T02:06:58.945Z,67.90
2018-04-13T02:07:35.663Z,66.80
2018-04-13T02:08:10.950Z,66.60
2018-04-13T02:08:46.348Z,65.10
2018-04-13T02:09:21.736Z,65.90
2018-04-13T02:09:57.253Z,67.60
2018-04-13T02:10:32.755Z,66.10
2018-04-13T02:11:08.427Z,64.70
2018-04-13T02:11:43.742Z,67.70
2018-04-13T02:12:19.051Z,65.10
2018-04-13T02:12:54.366Z,66.30
2018-04-13T02:13:29.655Z,67.90
2018-04-13T02:14:04.895Z,72.20
2018-04-13T02:14:40.321Z,69.20
2018-04-13T02:15:15.664Z,69.00
2018-04-13T02:15:51.072Z,69.70
2018-04-13T02:16:26.558Z,69.70
2018-04-13T02:17:01.936Z,68.40
2018-04-13T02:17:37.381Z,68.90
2018-04-13T02:18:13.167Z,71.20
2018-04-13T02:18:48.487Z,70.40
2018-04-13T02:19:23.757Z,71.20
2018-04-13T02:19:59.287Z,72.50
2018-04-13T02:20:34.834Z,73.00
2018-04-13T02:21:10.346Z,72.90
2018-04-13T02:21:45.473Z,72.30
2018-04-13T02:22:20.801Z,70.70
2018-04-13T02:22:55.920Z,71.80
2018-04-13T02:23:31.124Z,72.20
2018-04-13T02:24:06.358Z,70.70
2018-04-13T02:24:41.983Z,70.20
2018-04-13T02:25:17.179Z,70.40
2018-04-13T02:25:52.932Z,69.30
2018-04-13T02:26:28.326Z,63.10
2018-04-13T02:27:03.769Z,60.90
2018-04-13T02:27:39.107Z,62.90
2018-04-13T02:28:14.289Z,66.70
2018-04-13T02:28:49.531Z,70.60
2018-04-13T02:29:24.839Z,76.00
2018-04-13T02:30:00.093Z,70.80
2018-04-13T02:30:35.527Z,67.90
2018-04-13T02:31:10.635Z,67.90
2018-04-13T02:31:46.168Z,65.70
2018-04-13T02:32:21.884Z,62.70
2018-04-13T02:32:57.132Z,58.50
2018-04-13T02:33:32.533Z,59.60
2018-04-13T02:34:07.972Z,61.60
2018-04-13T02:34:43.466Z,60.80
2018-04-13T02:35:18.797Z,63.10
2018-04-13T02:35:54.244Z,65.00
2018-04-13T02:36:29.533Z,65.00
2018-04-13T02:37:04.799Z,67.10
2018-04-13T02:37:40.527Z,64.20
2018-04-13T02:38:15.833Z,65.90
2018-04-13T02:38:51.334Z,66.90
2018-04-13T02:39:26.953Z,65.60
2018-04-13T02:40:02.917Z,64.60
2018-04-13T02:40:39.049Z,68.80
2018-04-13T02:41:14.259Z,69.60
2018-04-13T02:41:49.670Z,66.50
2018-04-13T02:42:25.126Z,69.60
2018-04-13T02:43:00.450Z,69.90
2018-04-13T02:43:35.652Z,70.90
2018-04-13T02:44:11.192Z,71.70
2018-04-13T02:44:46.533Z,74.40
2018-04-13T02:45:21.831Z,72.70
2018-04-13T02:45:57.136Z,68.50
2018-04-13T02:46:32.533Z,68.60
2018-04-13T02:47:08.080Z,70.60
2018-04-13T02:47:43.368Z,67.80
2018-04-13T02:48:18.675Z,67.20
2018-04-13T02:48:54.027Z,68.80
2018-04-13T02:49:29.317Z,66.60
2018-04-13T02:50:04.847Z,68.90
2018-04-13T02:50:42.741Z,71.50
2018-04-13T02:51:18.263Z,72.50
2018-04-13T02:51:53.894Z,77.00
2018-04-13T02:52:29.184Z,78.90
2018-04-13T02:53:04.649Z,75.70
2018-04-13T02:53:40.203Z,74.70
2018-04-13T02:54:15.321Z,74.60
2018-04-13T02:54:50.647Z,74.10
2018-04-13T02:55:25.919Z,74.40
2018-04-13T02:56:01.256Z,72.60
2018-04-13T02:56:36.545Z,71.90
2018-04-13T02:57:11.822Z,73.70
2018-04-13T02:57:47.068Z,73.20
2018-04-13T02:58:22.584Z,74.40
2018-04-13T02:58:57.790Z,75.10
2018-04-13T02:59:33.100Z,72.40
2018-04-13T03:00:08.531Z,73.30
2018-04-13T03:00:47.763Z,72.00
2018-04-13T03:01:23.036Z,74.50
2018-04-13T03:01:58.879Z,74.50
2018-04-13T03:02:34.176Z,69.10
2018-04-13T03:03:09.914Z,70.10
2018-04-13T03:03:45.415Z,72.80
2018-04-13T03:04:20.628Z,69.90
2018-04-13T03:04:56.270Z,68.10
2018-04-13T03:05:31.459Z,67.80
2018-04-13T03:06:06.685Z,65.50
2018-04-13T03:06:41.792Z,68.50
2018-04-13T03:07:17.261Z,69.90
2018-04-13T03:07:53.089Z,71.90
2018-04-13T03:08:28.485Z,69.60
2018-04-13T03:09:03.813Z,68.20
2018-04-13T03:09:39.227Z,70.20
2018-04-13T03:10:14.460Z,69.30
2018-04-13T03:10:49.993Z,69.00
2018-04-13T03:11:25.485Z,70.70
2018-04-13T03:12:01.164Z,71.00
2018-04-13T03:12:37.259Z,68.90
2018-04-13T03:13:12.453Z,67.90
2018-04-13T03:13:47.826Z,68.90
2018-04-13T03:14:23.356Z,70.00
2018-04-13T03:14:58.670Z,69.90
2018-04-13T03:15:34.509Z,66.60
2018-04-13T03:16:09.715Z,68.60
2018-04-13T03:16:44.926Z,66.70
2018-04-13T03:17:20.521Z,67.10
2018-04-13T03:17:55.645Z,69.40
2018-04-13T03:18:31.023Z,67.60
2018-04-13T03:19:06.584Z,66.10
2018-04-13T03:19:41.911Z,66.00
2018-04-13T03:20:17.035Z,67.20
2018-04-13T03:20:52.455Z,65.60
2018-04-13T03:21:27.864Z,65.50
2018-04-13T03:22:03.734Z,65.90
2018-04-13T03:22:39.016Z,68.40
2018-04-13T03:23:14.457Z,72.20
2018-04-13T03:23:49.667Z,70.10
2018-04-13T03:24:25.182Z,66.70
2018-04-13T03:25:00.712Z,69.80
2018-04-13T03:25:35.904Z,74.30
2018-04-13T03:26:11.534Z,71.40
2018-04-13T03:26:47.165Z,69.20
2018-04-13T03:27:22.988Z,66.60
2018-04-13T03:27:58.609Z,67.90
2018-04-13T03:28:34.109Z,70.70
2018-04-13T03:29:09.412Z,69.70
2018-04-13T03:29:44.527Z,67.90
2018-04-13T03:30:20.127Z,68.00
2018-04-13T03:30:55.550Z,66.40
2018-04-13T03:31:31.056Z,68.40
2018-04-13T03:32:06.821Z,65.30
2018-04-13T03:32:42.107Z,66.30
2018-04-13T03:33:17.446Z,66.20
2018-04-13T03:33:52.808Z,65.20
2018-04-13T03:34:28.380Z,63.50
2018-04-13T03:35:03.475Z,62.70
2018-04-13T03:35:38.701Z,60.70
2018-04-13T03:36:14.160Z,63.00
2018-04-13T03:36:49.477Z,65.70
2018-04-13T03:37:24.830Z,67.70
2018-04-13T03:38:00.462Z,65.60
2018-04-13T03:38:35.758Z,66.10
2018-04-13T03:39:11.378Z,65.40
2018-04-13T03:39:46.518Z,65.30
2018-04-13T03:40:21.957Z,64.30
2018-04-13T03:40:57.278Z,64.10
2018-04-13T03:41:32.580Z,65.40
2018-04-13T03:42:08.024Z,62.70
2018-04-13T03:42:43.515Z,58.90
2018-04-13T03:43:18.625Z,58.90
2018-04-13T03:43:54.253Z,59.00
2018-04-13T03:44:29.787Z,59.60
2018-04-13T03:45:05.538Z,61.90
2018-04-13T03:45:40.814Z,63.30
2018-04-13T03:46:15.855Z,66.00
2018-04-13T03:46:51.246Z,67.40
2018-04-13T03:47:26.513Z,67.40
2018-04-13T03:48:01.782Z,65.10
2018-04-13T03:48:37.994Z,65.30
2018-04-13T03:49:13.519Z,67.00
2018-04-13T03:49:48.920Z,64.30
2018-04-13T03:50:24.376Z,62.30
2018-04-13T03:50:59.592Z,65.40
2018-04-13T03:51:34.766Z,68.10
2018-04-13T03:52:10.367Z,70.10
2018-04-13T03:52:45.559Z,72.50
2018-04-13T03:53:21.292Z,71.50
2018-04-13T03:53:56.961Z,71.20
2018-04-13T03:54:32.172Z,75.00
2018-04-13T03:55:07.572Z,72.00
2018-04-13T03:55:43.058Z,70.30
2018-04-13T03:56:18.375Z,71.80
2018-04-13T03:56:53.607Z,70.30
2018-04-13T03:57:29.055Z,68.60
2018-04-13T03:58:04.397Z,68.80
2018-04-13T03:58:40.086Z,68.80
2018-04-13T03:59:15.497Z,69.70
2018-04-13T03:59:50.673Z,71.00
2018-04-13T04:00:26.123Z,70.90
2018-04-13T04:01:02.260Z,69.30
2018-04-13T04:01:37.852Z,68.70
2018-04-13T04:02:13.446Z,70.10
2018-04-13T04:02:48.648Z,69.20
2018-04-13T04:03:24.262Z,69.40
2018-04-13T04:03:59.683Z,74.20
2018-04-13T04:04:35.061Z,76.20
2018-04-13T04:05:10.599Z,71.40
2018-04-13T04:05:45.725Z,71.50
2018-04-13T04:06:21.570Z,70.20
2018-04-13T04:06:57.204Z,68.50
2018-04-13T04:07:32.535Z,67.00
2018-04-13T04:08:08.290Z,69.30
2018-04-13T04:08:43.692Z,67.10
2018-04-13T04:09:19.046Z,68.20
2018-04-13T04:09:55.766Z,69.00
2018-04-13T04:10:31.068Z,67.30
2018-04-13T04:11:06.283Z,65.50
2018-04-13T04:11:41.598Z,64.20
2018-04-13T04:12:16.942Z,67.00
2018-04-13T04:12:52.238Z,69.20
2018-04-13T04:13:27.559Z,67.50
2018-04-13T04:14:03.178Z,66.80
2018-04-13T04:14:39.143Z,62.00
2018-04-13T04:15:14.664Z,60.70
2018-04-13T04:15:49.882Z,61.30
2018-04-13T04:16:25.637Z,60.60
2018-04-13T04:17:01.403Z,59.50
2018-04-13T04:17:36.924Z,59.90
2018-04-13T04:18:12.138Z,60.30
2018-04-13T04:18:47.569Z,59.80
2018-04-13T04:19:22.876Z,62.20
2018-04-13T04:19:57.877Z,62.70
2018-04-13T04:20:33.615Z,61.60
2018-04-13T04:21:08.921Z,59.90
2018-04-13T04:21:44.324Z,58.60
2018-04-13T04:22:19.622Z,58.80
2018-04-13T04:22:55.021Z,63.60
2018-04-13T04:23:30.363Z,65.80
2018-04-13T04:24:05.928Z,64.30
2018-04-13T04:24:41.698Z,63.60
2018-04-13T04:25:16.849Z,63.70
2018-04-13T04:25:52.457Z,64.40
2018-04-13T04:26:27.814Z,68.00
2018-04-13T04:27:03.529Z,65.30
2018-04-13T04:27:39.041Z,67.90
2018-04-13T04:28:14.662Z,69.10
2018-04-13T04:28:49.779Z,70.20
2018-04-13T04:29:25.127Z,67.50
2018-04-13T04:30:00.503Z,68.40
2018-04-13T04:30:35.933Z,70.10
2018-04-13T04:31:10.905Z,71.10
2018-04-13T04:31:46.213Z,71.40
2018-04-13T04:32:21.575Z,69.00
2018-04-13T04:32:57.188Z,67.80
2018-04-13T04:33:32.702Z,68.90
2018-04-13T04:34:07.929Z,73.00
2018-04-13T04:34:43.613Z,76.10
2018-04-13T04:35:18.990Z,76.10
2018-04-13T04:35:54.226Z,76.20
2018-04-13T04:36:29.942Z,75.70
2018-04-13T04:37:05.375Z,74.60
2018-04-13T04:37:41.004Z,74.40
2018-04-13T04:38:16.447Z,74.10
2018-04-13T04:38:51.910Z,74.10
2018-04-13T04:39:27.853Z,75.90
2018-04-13T04:40:03.523Z,76.20
2018-04-13T04:40:39.550Z,77.00
2018-04-13T04:41:14.754Z,79.30
2018-04-13T04:41:49.856Z,82.90
2018-04-13T04:42:25.229Z,80.60
2018-04-13T04:43:00.539Z,79.10
2018-04-13T04:43:35.875Z,81.00
2018-04-13T04:44:11.484Z,81.30
2018-04-13T04:44:46.812Z,79.80
2018-04-13T04:45:21.930Z,83.10
2018-04-13T04:45:57.574Z,84.10
2018-04-13T04:46:32.860Z,80.30
2018-04-13T04:47:07.899Z,82.20
2018-04-13T04:47:43.369Z,84.10
2018-04-13T04:48:18.588Z,80.10
2018-04-13T04:48:54.106Z,82.00
2018-04-13T04:49:29.449Z,83.40
2018-04-13T04:50:05.200Z,82.60
2018-04-13T04:50:40.615Z,82.50
2018-04-13T04:51:16.052Z,84.60
2018-04-13T04:51:51.605Z,85.00
2018-04-13T04:52:26.952Z,84.90
2018-04-13T04:53:02.084Z,83.70
2018-04-13T04:53:37.694Z,84.00
2018-04-13T04:54:12.795Z,83.80
2018-04-13T04:54:48.529Z,85.80
2018-04-13T04:55:23.754Z,86.10
2018-04-13T04:55:59.159Z,85.30
2018-04-13T04:56:34.982Z,82.70
2018-04-13T04:57:10.423Z,86.40
2018-04-13T04:57:46.286Z,85.30
2018-04-13T04:58:21.704Z,84.40
2018-04-13T04:58:57.211Z,84.70
2018-04-13T04:59:32.651Z,82.90
2018-04-13T05:00:07.832Z,82.20
2018-04-13T05:00:43.779Z,82.70
2018-04-13T05:01:19.201Z,84.80
2018-04-13T05:01:54.736Z,81.20
2018-04-13T05:02:29.992Z,84.20
2018-04-13T05:03:05.505Z,83.10
2018-04-13T05:03:40.753Z,82.00
2018-04-13T05:04:16.396Z,81.80
2018-04-13T05:04:51.965Z,82.50
2018-04-13T05:05:27.396Z,82.40
2018-04-13T05:06:02.991Z,81.90
2018-04-13T05:06:38.631Z,78.40
2018-04-13T05:07:14.500Z,79.80
2018-04-13T05:07:49.924Z,83.60
2018-04-13T05:08:25.255Z,79.80
2018-04-13T05:09:00.570Z,80.50
2018-04-13T05:09:36.038Z,80.80
2018-04-13T05:10:11.202Z,77.90
2018-04-13T05:10:46.734Z,76.00
2018-04-13T05:11:22.122Z,78.20
2018-04-13T05:11:57.445Z,83.50
2018-04-13T05:12:32.793Z,84.90
2018-04-13T05:13:08.221Z,85.40
2018-04-13T05:13:43.328Z,83.30
2018-04-13T05:14:18.999Z,78.90
2018-04-13T05:14:54.489Z,80.80
2018-04-13T05:15:30.119Z,82.90
2018-04-13T05:16:05.915Z,80.60
2018-04-13T05:16:41.445Z,81.60
2018-04-13T05:17:16.876Z,81.00
2018-04-13T05:17:52.475Z,82.30
2018-04-13T05:18:27.621Z,85.90
2018-04-13T05:19:02.931Z,83.80
2018-04-13T05:19:38.406Z,82.70
2018-04-13T05:20:13.828Z,83.40
2018-04-13T05:20:51.953Z,80.00
2018-04-13T05:21:27.220Z,80.10
2018-04-13T05:22:02.589Z,81.60
2018-04-13T05:22:37.809Z,80.20
2018-04-13T05:23:13.079Z,78.10
2018-04-13T05:23:48.445Z,79.80
2018-04-13T05:24:23.981Z,79.90
2018-04-13T05:24:59.323Z,81.80
2018-04-13T05:25:35.104Z,82.70
2018-04-13T05:26:10.664Z,81.30
2018-04-13T05:26:46.512Z,79.40
2018-04-13T05:27:21.814Z,79.30
2018-04-13T05:27:57.313Z,78.00
2018-04-13T05:28:32.627Z,77.20
2018-04-13T05:29:08.123Z,78.00
2018-04-13T05:29:43.459Z,78.60
2018-04-13T05:30:19.205Z,76.20
2018-04-13T05:30:55.638Z,77.90
2018-04-13T05:31:31.478Z,77.30
2018-04-13T05:32:06.773Z,76.80
2018-04-13T05:32:42.542Z,78.50
2018-04-13T05:33:17.937Z,81.10
2018-04-13T05:33:53.051Z,83.70
2018-04-13T05:34:28.807Z,86.00
2018-04-13T05:35:03.789Z,82.70
2018-04-13T05:35:39.521Z,79.00
2018-04-13T05:36:14.869Z,80.90
2018-04-13T05:36:50.259Z,84.00
2018-04-13T05:37:25.702Z,82.60
2018-04-13T05:38:00.881Z,83.30
2018-04-13T05:38:36.342Z,84.10
2018-04-13T05:39:11.662Z,82.90
2018-04-13T05:39:46.888Z,82.80
2018-04-13T05:40:22.426Z,83.30
2018-04-13T05:40:57.831Z,82.60
2018-04-13T05:41:33.258Z,81.70
2018-04-13T05:42:09.086Z,81.60
2018-04-13T05:42:44.735Z,83.50
2018-04-13T05:43:19.949Z,82.30
2018-04-13T05:43:55.475Z,80.00
2018-04-13T05:44:30.921Z,79.10
2018-04-13T05:45:06.125Z,79.70
2018-04-13T05:45:42.186Z,80.40
2018-04-13T05:46:17.988Z,79.00
2018-04-13T05:46:53.393Z,78.20
2018-04-13T05:47:28.774Z,77.60
2018-04-13T05:48:03.886Z,76.50
2018-04-13T05:48:39.351Z,77.70
2018-04-13T05:49:14.815Z,79.40
2018-04-13T05:49:50.124Z,79.90
2018-04-13T05:50:25.169Z,82.10
2018-04-13T05:51:00.758Z,82.00
2018-04-13T05:51:38.130Z,81.50
2018-04-13T05:52:13.456Z,80.60
2018-04-13T05:52:48.771Z,79.30
2018-04-13T05:53:24.198Z,81.50
2018-04-13T05:53:59.707Z,82.20
2018-04-13T05:54:35.160Z,80.20
2018-04-13T05:55:10.544Z,81.50
2018-04-13T05:55:45.781Z,78.70
2018-04-13T05:56:21.228Z,78.70
2018-04-13T05:56:56.643Z,80.40
2018-04-13T05:57:31.960Z,82.00
2018-04-13T05:58:07.184Z,79.70
2018-04-13T05:58:42.696Z,78.50
2018-04-13T05:59:18.064Z,79.50
2018-04-13T05:59:53.493Z,77.60
2018-04-13T06:00:28.723Z,76.70
2018-04-13T06:01:04.540Z,74.50
2018-04-13T06:01:39.762Z,75.20
2018-04-13T06:02:15.232Z,74.50
2018-04-13T06:02:50.897Z,78.10
2018-04-13T06:03:26.241Z,78.60
2018-04-13T06:04:01.488Z,77.90
2018-04-13T06:04:37.119Z,78.30
2018-04-13T06:07:13.467Z,78.20
2018-04-13T06:07:51.664Z,76.00
2018-04-13T06:08:26.977Z,74.50
2018-04-13T06:09:02.247Z,74.30
2018-04-13T06:09:38.195Z,74.00
2018-04-13T06:10:13.723Z,75.40
2018-04-13T06:10:51.252Z,77.20
2018-04-13T06:11:26.769Z,78.40
2018-04-13T06:12:01.969Z,75.50
2018-04-13T06:12:37.489Z,76.20
2018-04-13T06:13:12.666Z,71.80
2018-04-13T06:13:47.978Z,70.90
2018-04-13T06:14:23.556Z,75.30
2018-04-13T06:14:58.951Z,74.10
2018-04-13T06:15:34.301Z,75.30
2018-04-13T06:16:09.685Z,73.60
2018-04-13T06:16:45.040Z,74.60
2018-04-13T06:17:20.335Z,75.60
2018-04-13T06:17:56.183Z,76.10
2018-04-13T06:18:31.580Z,74.40
2018-04-13T06:19:06.960Z,72.80
2018-04-13T06:19:42.460Z,72.30
2018-04-13T06:20:18.040Z,73.60
2018-04-13T06:20:53.525Z,74.10
2018-04-13T06:21:29.029Z,72.40
2018-04-13T06:22:04.578Z,70.80
2018-04-13T06:22:41.724Z,71.40
2018-04-13T06:23:17.048Z,72.90
2018-04-13T06:23:52.605Z,72.10
2018-04-13T06:24:27.966Z,75.70
2018-04-13T06:25:03.229Z,76.50
2018-04-13T06:25:42.190Z,75.20
2018-04-13T06:26:19.612Z,72.90
2018-04-13T06:26:55.099Z,71.50
2018-04-13T06:27:30.446Z,71.60
2018-04-13T06:28:05.757Z,75.20
2018-04-13T06:28:41.277Z,73.50
2018-04-13T06:29:16.573Z,72.50
2018-04-13T06:29:51.894Z,74.20
2018-04-13T06:30:27.035Z,71.10
2018-04-13T06:31:02.288Z,69.50
2018-04-13T06:31:38.103Z,71.20
2018-04-13T06:32:13.522Z,71.50
2018-04-13T06:32:48.858Z,71.50
2018-04-13T06:33:24.187Z,68.10
2018-04-13T06:33:59.485Z,67.20
2018-04-13T06:34:37.838Z,70.90
2018-04-13T06:35:13.265Z,69.80
2018-04-13T06:35:48.896Z,70.10
2018-04-13T06:36:24.439Z,68.70
2018-04-13T06:36:59.869Z,69.80
2018-04-13T06:37:35.811Z,68.30
2018-04-13T06:38:11.278Z,69.10
2018-04-13T06:38:46.608Z,69.20
2018-04-13T06:39:22.161Z,69.40
2018-04-13T06:39:57.527Z,67.40
2018-04-13T06:40:33.491Z,68.10
2018-04-13T06:41:08.710Z,68.60
2018-04-13T06:41:43.965Z,68.40
2018-04-13T06:42:19.181Z,67.80
2018-04-13T06:42:55.513Z,68.40
2018-04-13T06:43:31.017Z,70.40
2018-04-13T06:44:06.511Z,71.90
2018-04-13T06:44:41.847Z,65.60
2018-04-13T06:45:18.538Z,67.40
2018-04-13T06:45:53.986Z,69.90
2018-04-13T06:46:29.427Z,68.00
2018-04-13T06:47:05.113Z,68.00
2018-04-13T06:47:40.570Z,70.20
2018-04-13T06:48:15.939Z,65.90
2018-04-13T06:48:51.573Z,68.00
2018-04-13T06:49:26.857Z,69.00
2018-04-13T06:50:02.359Z,67.50
2018-04-13T06:50:39.380Z,66.90
2018-04-13T06:51:14.598Z,68.00
2018-04-13T06:51:50.031Z,66.80
2018-04-13T06:52:25.722Z,67.50
2018-04-13T06:53:01.106Z,68.00
2018-04-13T06:53:36.430Z,68.40
2018-04-13T06:54:11.828Z,70.10
2018-04-13T06:54:47.388Z,69.60
2018-04-13T06:55:22.907Z,69.30
2018-04-13T06:55:59.543Z,68.00
2018-04-13T06:56:35.770Z,67.50
2018-04-13T06:57:11.606Z,68.40
2018-04-13T06:57:46.832Z,68.00
2018-04-13T06:58:22.130Z,66.80
2018-04-13T06:58:59.457Z,69.50
2018-04-13T06:59:35.088Z,68.60
2018-04-13T07:00:10.896Z,68.20
2018-04-13T07:00:47.432Z,68.80
2018-04-13T07:01:22.971Z,66.00
2018-04-13T07:01:58.489Z,68.60
2018-04-13T07:02:34.172Z,68.40
2018-04-13T07:03:09.571Z,70.10
2018-04-13T07:03:45.216Z,70.30
2018-04-13T07:04:20.760Z,67.70
2018-04-13T07:04:56.103Z,66.70
2018-04-13T07:05:31.330Z,66.80
2018-04-13T07:06:06.751Z,65.80
2018-04-13T07:06:45.772Z,65.50
2018-04-13T07:07:21.349Z,65.10
2018-04-13T07:07:56.756Z,65.10
2018-04-13T07:08:32.285Z,68.10
2018-04-13T07:09:07.570Z,66.60
2018-04-13T07:09:42.943Z,63.50
2018-04-13T07:10:18.456Z,65.60
2018-04-13T07:10:56.305Z,66.70
2018-04-13T07:11:31.878Z,67.50
2018-04-13T07:12:07.413Z,68.90
2018-04-13T07:12:42.847Z,66.40
2018-04-13T07:13:18.172Z,63.40
2018-04-13T07:13:53.585Z,63.60
2018-04-13T07:14:28.898Z,64.00
2018-04-13T07:15:04.533Z,63.80
2018-04-13T07:15:40.905Z,63.40
2018-04-13T07:16:16.094Z,63.70
2018-04-13T07:16:51.322Z,62.80
2018-04-13T07:17:28.890Z,63.40
2018-04-13T07:18:04.616Z,65.10
2018-04-13T07:18:40.147Z,63.40
2018-04-13T07:19:15.672Z,59.50
2018-04-13T07:19:51.205Z,58.70
2018-04-13T07:20:26.615Z,61.10
2018-04-13T07:21:02.237Z,58.80
2018-04-13T07:21:37.786Z,58.00
2018-04-13T07:22:12.914Z,59.70
2018-04-13T07:22:48.160Z,59.50
2018-04-13T07:23:23.435Z,59.50
2018-04-13T07:23:58.847Z,57.40
2018-04-13T07:24:34.389Z,56.80
2018-04-13T07:25:10.585Z,58.60
2018-04-13T07:25:46.048Z,59.40
2018-04-13T07:26:21.453Z,60.10
2018-04-13T07:26:56.997Z,57.50
2018-04-13T07:27:32.479Z,56.20
2018-04-13T07:28:07.922Z,56.50
2018-04-13T07:28:43.263Z,56.30
2018-04-13T07:29:18.658Z,55.60
2018-04-13T07:29:53.877Z,56.10
2018-04-13T07:30:29.095Z,55.50
2018-04-13T07:31:04.597Z,54.20
2018-04-13T07:31:40.746Z,53.60
2018-04-13T07:32:16.464Z,55.00
2018-04-13T07:32:52.072Z,53.80
2018-04-13T07:33:27.700Z,54.80
2018-04-13T07:34:03.404Z,54.70
2018-04-13T07:34:39.318Z,55.40
2018-04-13T07:35:14.920Z,55.00
2018-04-13T07:35:50.134Z,54.60
2018-04-13T07:36:25.444Z,54.00
2018-04-13T07:37:01.152Z,52.30
2018-04-13T07:37:36.600Z,54.00
2018-04-13T07:38:11.899Z,53.50
2018-04-13T07:38:47.247Z,53.20
2018-04-13T07:39:22.874Z,53.70